sensor_id;sensor_type;location;lat;lon;timestamp;temperature;humidity
55203;DHT22;41077;52.956;6.796;2023-05-16T07:09:07;11.20;99.90
55203;DHT22;41077;52.956;6.796;2023-05-16T07:11:32;11.20;99.90
55203;DHT22;41077;52.956;6.796;2023-05-16T07:13:58;11.30;99.90
55203;DHT22;41077;52.956;6.796;2023-05-16T07:16:24;11.20;99.90
55203;DHT22;41077;52.956;6.796;2023-05-16T07:18:53;11.30;99.90
55203;DHT22;41077;52.956;6.796;2023-05-16T07:21:18;11.40;99.90
55203;DHT22;41077;52.956;6.796;2023-05-16T07:23:44;11.60;99.90
55203;DHT22;41077;52.956;6.796;2023-05-16T07:26:10;11.60;99.90
55203;DHT22;41077;52.956;6.796;2023-05-16T07:28:36;11.60;99.90
55203;DHT22;41077;52.956;6.796;2023-05-16T07:31:01;11.60;99.90
55203;DHT22;41077;52.956;6.796;2023-05-16T07:33:27;11.60;99.90
55203;DHT22;41077;52.956;6.796;2023-05-16T07:35:53;11.60;99.90
55203;DHT22;41077;52.956;6.796;2023-05-16T07:38:20;11.70;99.90
55203;DHT22;41077;52.956;6.796;2023-05-16T07:40:46;11.90;99.90
55203;DHT22;41077;52.956;6.796;2023-05-16T07:43:11;12.00;99.90
55203;DHT22;41077;52.956;6.796;2023-05-16T07:45:37;12.00;99.90
55203;DHT22;41077;52.956;6.796;2023-05-16T07:48:03;12.00;99.90
55203;DHT22;41077;52.956;6.796;2023-05-16T07:50:29;11.90;99.90
55203;DHT22;41077;52.956;6.796;2023-05-16T07:52:54;12.00;99.90
55203;DHT22;41077;52.956;6.796;2023-05-16T07:55:20;12.10;99.90
55203;DHT22;41077;52.956;6.796;2023-05-16T07:57:49;12.10;99.90
55203;DHT22;41077;52.956;6.796;2023-05-16T08:00:16;12.30;99.90
55203;DHT22;41077;52.956;6.796;2023-05-16T08:02:42;12.30;99.90
55203;DHT22;41077;52.956;6.796;2023-05-16T08:05:08;12.20;99.90
55203;DHT22;41077;52.956;6.796;2023-05-16T08:07:34;12.10;99.90
55203;DHT22;41077;52.956;6.796;2023-05-16T08:09:59;12.20;99.90
55203;DHT22;41077;52.956;6.796;2023-05-16T08:12:25;12.20;99.90
55203;DHT22;41077;52.956;6.796;2023-05-16T08:14:51;12.20;99.90
55203;DHT22;41077;52.956;6.796;2023-05-16T08:17:17;12.30;99.90
55203;DHT22;41077;52.956;6.796;2023-05-16T08:19:43;12.20;99.90
55203;DHT22;41077;52.956;6.796;2023-05-16T08:22:09;12.30;99.90
55203;DHT22;41077;52.956;6.796;2023-05-16T08:24:35;12.50;99.90
55203;DHT22;41077;52.956;6.796;2023-05-16T08:27:00;12.50;99.90
55203;DHT22;41077;52.956;6.796;2023-05-16T08:29:26;12.60;99.90
55203;DHT22;41077;52.956;6.796;2023-05-16T08:31:53;12.60;99.90
55203;DHT22;41077;52.956;6.796;2023-05-16T08:34:18;12.70;99.90
55203;DHT22;41077;52.956;6.796;2023-05-16T08:36:44;12.80;99.90
55203;DHT22;41077;52.956;6.796;2023-05-16T08:39:10;12.70;99.90
55203;DHT22;41077;52.956;6.796;2023-05-16T08:41:36;12.50;99.90
55203;DHT22;41077;52.956;6.796;2023-05-16T08:46:28;12.40;99.90
55203;DHT22;41077;52.956;6.796;2023-05-16T08:48:58;12.20;99.90
55203;DHT22;41077;52.956;6.796;2023-05-16T08:51:24;12.30;99.90
55203;DHT22;41077;52.956;6.796;2023-05-16T08:54:00;12.50;99.90
55203;DHT22;41077;52.956;6.796;2023-05-16T08:56:28;12.80;99.90
55203;DHT22;41077;52.956;6.796;2023-05-16T08:58:54;13.00;99.90
55203;DHT22;41077;52.956;6.796;2023-05-16T09:01:23;13.10;99.90
55203;DHT22;41077;52.956;6.796;2023-05-16T09:03:49;13.00;99.90
55203;DHT22;41077;52.956;6.796;2023-05-16T09:06:15;12.80;99.90
55203;DHT22;41077;52.956;6.796;2023-05-16T09:08:41;12.50;99.90
55203;DHT22;41077;52.956;6.796;2023-05-16T09:13:34;12.40;99.90
55203;DHT22;41077;52.956;6.796;2023-05-16T09:16:09;12.10;99.90
55203;DHT22;41077;52.956;6.796;2023-05-16T09:18:36;12.30;99.90
55203;DHT22;41077;52.956;6.796;2023-05-16T09:21:03;12.40;99.90
55203;DHT22;41077;52.956;6.796;2023-05-16T09:23:29;12.70;99.90
55203;DHT22;41077;52.956;6.796;2023-05-16T09:25:56;12.90;99.90
55203;DHT22;41077;52.956;6.796;2023-05-16T09:28:24;13.10;99.90
55203;DHT22;41077;52.956;6.796;2023-05-16T09:30:51;13.20;99.90
55203;DHT22;41077;52.956;6.796;2023-05-16T09:33:17;13.20;99.90
55203;DHT22;41077;52.956;6.796;2023-05-16T09:35:43;13.20;99.90
55203;DHT22;41077;52.956;6.796;2023-05-16T09:38:14;13.00;99.90
55203;DHT22;41077;52.956;6.796;2023-05-16T09:40:40;12.90;99.90
55203;DHT22;41077;52.956;6.796;2023-05-16T09:43:06;12.90;99.90
55203;DHT22;41077;52.956;6.796;2023-05-16T09:45:33;13.20;99.90
55203;DHT22;41077;52.956;6.796;2023-05-16T09:48:07;13.30;99.90
55203;DHT22;41077;52.956;6.796;2023-05-16T09:50:34;13.50;99.90
55203;DHT22;41077;52.956;6.796;2023-05-16T09:53:01;13.70;99.90
55203;DHT22;41077;52.956;6.796;2023-05-16T09:55:26;13.70;99.90
55203;DHT22;41077;52.956;6.796;2023-05-16T09:57:52;13.90;99.90
55203;DHT22;41077;52.956;6.796;2023-05-16T10:00:18;14.20;99.90
55203;DHT22;41077;52.956;6.796;2023-05-16T10:02:44;14.40;99.90
55203;DHT22;41077;52.956;6.796;2023-05-16T10:05:10;14.50;98.50
55203;DHT22;41077;52.956;6.796;2023-05-16T10:07:36;14.40;98.40
55203;DHT22;41077;52.956;6.796;2023-05-16T10:10:05;14.50;99.20
55203;DHT22;41077;52.956;6.796;2023-05-16T10:12:33;14.60;98.10
55203;DHT22;41077;52.956;6.796;2023-05-16T10:15:04;14.60;97.20
55203;DHT22;41077;52.956;6.796;2023-05-16T10:17:32;14.40;97.70
55203;DHT22;41077;52.956;6.796;2023-05-16T10:20:03;14.40;98.40
55203;DHT22;41077;52.956;6.796;2023-05-16T10:22:35;14.40;97.70
55203;DHT22;41077;52.956;6.796;2023-05-16T10:25:11;14.40;96.30
55203;DHT22;41077;52.956;6.796;2023-05-16T10:27:41;14.40;96.30
55203;DHT22;41077;52.956;6.796;2023-05-16T10:30:07;14.70;96.00
55203;DHT22;41077;52.956;6.796;2023-05-16T10:32:35;14.80;96.50
55203;DHT22;41077;52.956;6.796;2023-05-16T10:35:02;14.90;96.50
55203;DHT22;41077;52.956;6.796;2023-05-16T10:37:30;14.70;96.50
55203;DHT22;41077;52.956;6.796;2023-05-16T10:40:00;14.40;97.40
55203;DHT22;41077;52.956;6.796;2023-05-16T10:42:31;14.50;96.20
55203;DHT22;41077;52.956;6.796;2023-05-16T10:45:18;14.60;96.60
55203;DHT22;41077;52.956;6.796;2023-05-16T10:47:52;14.60;94.30
55203;DHT22;41077;52.956;6.796;2023-05-16T10:50:43;14.80;95.00
55203;DHT22;41077;52.956;6.796;2023-05-16T10:53:35;14.90;95.10
55203;DHT22;41077;52.956;6.796;2023-05-16T11:01:33;15.20;94.10
55203;DHT22;41077;52.956;6.796;2023-05-16T11:06:32;15.40;93.90
55203;DHT22;41077;52.956;6.796;2023-05-16T11:17:10;15.30;93.80
55203;DHT22;41077;52.956;6.796;2023-05-16T11:19:43;15.60;93.50
55203;DHT22;41077;52.956;6.796;2023-05-16T11:22:29;15.70;93.30
55203;DHT22;41077;52.956;6.796;2023-05-16T11:25:01;15.70;91.90
55203;DHT22;41077;52.956;6.796;2023-05-16T11:27:31;15.40;92.60
55203;DHT22;41077;52.956;6.796;2023-05-16T11:30:21;15.40;93.30
55203;DHT22;41077;52.956;6.796;2023-05-16T11:32:47;15.50;92.60
55203;DHT22;41077;52.956;6.796;2023-05-16T11:35:14;15.60;90.50
55203;DHT22;41077;52.956;6.796;2023-05-16T11:37:40;15.80;90.60
55203;DHT22;41077;52.956;6.796;2023-05-16T11:40:08;16.00;90.50
55203;DHT22;41077;52.956;6.796;2023-05-16T11:42:42;16.10;91.40
55203;DHT22;41077;52.956;6.796;2023-05-16T11:45:16;16.20;90.40
55203;DHT22;41077;52.956;6.796;2023-05-16T11:47:44;16.00;89.00
55203;DHT22;41077;52.956;6.796;2023-05-16T11:50:12;15.40;90.10
55203;DHT22;41077;52.956;6.796;2023-05-16T11:52:38;15.00;91.60
55203;DHT22;41077;52.956;6.796;2023-05-16T11:55:05;15.20;93.10
55203;DHT22;41077;52.956;6.796;2023-05-16T11:57:32;15.30;92.60
55203;DHT22;41077;52.956;6.796;2023-05-16T12:00:03;15.20;93.00
55203;DHT22;41077;52.956;6.796;2023-05-16T12:02:32;15.30;92.20
55203;DHT22;41077;52.956;6.796;2023-05-16T12:04:57;15.20;91.80
55203;DHT22;41077;52.956;6.796;2023-05-16T12:07:27;15.00;91.30
55203;DHT22;41077;52.956;6.796;2023-05-16T12:09:53;14.80;90.90
55203;DHT22;41077;52.956;6.796;2023-05-16T12:12:21;14.80;91.20
55203;DHT22;41077;52.956;6.796;2023-05-16T12:14:47;15.00;91.90
55203;DHT22;41077;52.956;6.796;2023-05-16T12:17:13;15.20;92.00
55203;DHT22;41077;52.956;6.796;2023-05-16T12:19:39;15.60;91.80
55203;DHT22;41077;52.956;6.796;2023-05-16T12:22:15;16.10;91.40
55203;DHT22;41077;52.956;6.796;2023-05-16T12:24:40;16.30;91.10
55203;DHT22;41077;52.956;6.796;2023-05-16T12:27:07;16.30;91.10
55203;DHT22;41077;52.956;6.796;2023-05-16T12:29:33;15.80;91.30
55203;DHT22;41077;52.956;6.796;2023-05-16T12:31:59;15.50;91.90
55203;DHT22;41077;52.956;6.796;2023-05-16T12:34:28;15.20;93.10
55203;DHT22;41077;52.956;6.796;2023-05-16T12:36:54;15.20;93.70
55203;DHT22;41077;52.956;6.796;2023-05-16T12:39:20;15.40;93.90
55203;DHT22;41077;52.956;6.796;2023-05-16T12:41:47;15.40;93.00
55203;DHT22;41077;52.956;6.796;2023-05-16T12:44:14;15.60;93.00
55203;DHT22;41077;52.956;6.796;2023-05-16T12:46:49;15.90;93.00
55203;DHT22;41077;52.956;6.796;2023-05-16T12:49:19;15.80;92.10
55203;DHT22;41077;52.956;6.796;2023-05-16T12:51:53;15.40;92.20
55203;DHT22;41077;52.956;6.796;2023-05-16T12:54:19;15.60;92.70
55203;DHT22;41077;52.956;6.796;2023-05-16T12:56:47;16.10;92.20
55203;DHT22;41077;52.956;6.796;2023-05-16T12:59:13;16.60;92.10
55203;DHT22;41077;52.956;6.796;2023-05-16T13:01:39;16.60;91.40
55203;DHT22;41077;52.956;6.796;2023-05-16T13:04:06;16.70;90.60
55203;DHT22;41077;52.956;6.796;2023-05-16T13:06:33;16.50;90.70
55203;DHT22;41077;52.956;6.796;2023-05-16T13:08:59;16.60;90.70
55203;DHT22;41077;52.956;6.796;2023-05-16T13:11:24;16.60;91.00
55203;DHT22;41077;52.956;6.796;2023-05-16T13:13:51;16.40;91.80
55203;DHT22;41077;52.956;6.796;2023-05-16T13:16:17;16.50;90.70
55203;DHT22;41077;52.956;6.796;2023-05-16T13:18:43;16.30;88.70
55203;DHT22;41077;52.956;6.796;2023-05-16T13:21:09;16.00;87.90
55203;DHT22;41077;52.956;6.796;2023-05-16T13:23:35;15.50;90.40
55203;DHT22;41077;52.956;6.796;2023-05-16T13:26:01;15.00;91.80
55203;DHT22;41077;52.956;6.796;2023-05-16T13:28:26;14.80;92.90
